Time;durP1;ratioP1;P1;durP2;ratioP2;P2;SDS_P1;SDS_P2;PMS_P1;PMS_P2;Temp;Humidity;BMP_temperature;BMP_pressure;BME280_temperature;BME280_humidity;BME280_pressure;Samples;Min_cycle;Max_cycle;Signal;HPM_P1;HPM_P2
2022/12/12 00:00:09;;;;;;;;;;;;;;;8.57;88.87;98147.91;341771;28;1363;-83
2022/12/12 00:00:19;;;;;;;;;;;;;;;8.56;89.15;98152.28;343123;28;1355;-82
2022/12/12 00:00:30;;;;;;;;;;;;;;;8.57;88.92;98150.50;349450;28;1337;-83
2022/12/12 00:00:41;;;;;;;;;;;;;;;8.56;89.03;98157.50;345307;28;1184;-83
2022/12/12 00:00:51;;;;;;;;;;;;;;;8.56;88.79;98151.44;345935;28;1527;-83
2022/12/12 00:01:02;;;;;;;;;;;;;;;8.54;89.40;98153.28;343155;28;1223;-83
2022/12/12 00:01:20;;;;;;;;;;;;;;;8.54;88.90;98153.28;345872;28;1217;-85
2022/12/12 00:01:35;;;;;;;;;;;;;;;8.54;89.16;98148.06;341363;29;1261;-83
2022/12/12 00:01:46;;;;;;;;;;;;;;;8.54;88.98;98148.06;338890;29;1376;-83
2022/12/12 00:01:56;;;;;;;;;;;;;;;8.54;89.17;98148.91;341584;29;1361;-83
2022/12/12 00:02:07;;;;;;;;;;;;;;;8.54;89.31;98154.13;340888;29;1262;-83
2022/12/12 00:02:17;;;;;;;;;;;;;;;8.56;89.27;98154.88;337753;29;1343;-83
2022/12/12 00:02:27;;;;;;;;;;;;;;;8.55;89.14;98153.19;339008;29;1366;-83
2022/12/12 00:02:37;;;;;;;;;;;;;;;8.56;88.95;98154.03;340858;29;1599;-82
2022/12/12 00:02:48;;;;;;;;;;;;;;;8.56;88.82;98157.50;341708;28;1209;-83
2022/12/12 00:02:58;;;;;;;;;;;;;;;8.55;88.95;98155.81;344282;28;1335;-84
2022/12/12 00:03:08;;;;;;;;;;;;;;;8.54;89.14;98156.72;341436;28;1214;-84
2022/12/12 00:03:18;;;;;;;;;;;;;;;8.55;89.11;98144.53;339598;29;1169;-83
2022/12/12 00:03:29;;;;;;;;;;;;;;;8.54;89.16;98145.47;338918;29;1331;-83
2022/12/12 00:03:39;;;;;;;;;;;;;;;8.53;89.21;98154.22;335885;29;1482;-83
2022/12/12 00:03:49;;;;;;;;;;;;;;;8.53;88.93;98155.06;335851;29;1612;-85
2022/12/12 00:04:00;;;;;;;;;;;;;;;8.53;88.89;98154.22;333523;29;1236;-84
2022/12/12 00:04:10;;;;;;;;;;;;;;;8.53;88.88;98149.00;329878;29;1773;-84
2022/12/12 00:04:20;;;;;;;;;;;;;;;8.52;88.91;98149.91;331582;29;1592;-84
2022/12/12 00:04:31;;;;;;;;;;;;;;;8.52;89.41;98155.13;331028;29;1486;-83
2022/12/12 00:04:41;;;;;;;;;;;;;;;8.53;89.36;98151.59;335180;29;867;-82
2022/12/12 00:04:51;;;;;;;;;;;;;;;8.52;89.58;98150.75;335600;29;3053;-82
2022/12/12 00:05:01;;;;;;;;;;;;;;;8.53;89.40;98151.59;332928;29;3225;-82
2022/12/12 00:05:15;;;;;;;;;;;;;;;8.53;89.21;98147.22;331117;29;2911;-83
2022/12/12 00:05:25;;;;;;;;;;;;;;;8.51;89.68;98149.06;327439;29;1899;-83
2022/12/12 00:05:35;;;;;;;;;;;;;;;8.52;89.14;98155.13;327472;30;3492;-83
2022/12/12 00:05:46;;;;;;;;;;;;;;;8.52;89.44;98147.31;323061;30;1810;-83
2022/12/12 00:05:56;;;;;;;;;;;;;;;8.48;89.59;98148.41;321404;30;1204;-83
2022/12/12 00:06:06;;;;;;;;;;;;;;;8.49;89.74;98150.09;316245;31;2168;-84
2022/12/12 00:06:16;;;;;;;;;;;;;;;8.50;89.63;98151.78;314671;31;2198;-83
2022/12/12 00:06:27;;;;;;;;;;;;;;;8.52;89.19;98149.91;314546;31;1254;-83
2022/12/12 00:06:37;;;;;;;;;;;;;;;8.51;89.47;98153.44;312344;31;2071;-83
2022/12/12 00:06:47;;;;;;;;;;;;;;;8.51;89.48;98148.25;310779;31;1467;-83
2022/12/12 00:06:58;;;;;;;;;;;;;;;8.50;89.54;98151.78;313955;31;1300;-83
2022/12/12 00:07:08;;;;;;;;;;;;;;;8.50;89.21;98151.78;313909;31;1222;-84
2022/12/12 00:07:18;;;;;;;;;;;;;;;8.49;89.05;98150.09;316643;31;1550;-83
2022/12/12 00:07:28;;;;;;;;;;;;;;;8.48;89.16;98146.66;317359;31;1234;-82
2022/12/12 00:07:39;;;;;;;;;;;;;;;8.48;89.22;98153.63;313146;31;2362;-84
2022/12/12 00:07:49;;;;;;;;;;;;;;;8.48;89.00;98148.41;309476;31;2828;-84
2022/12/12 00:07:59;;;;;;;;;;;;;;;8.47;89.13;98151.94;307139;32;1228;-84
2022/12/12 00:08:09;;;;;;;;;;;;;;;8.47;89.26;98149.34;305236;32;2545;-84
2022/12/12 00:08:22;;;;;;;;;;;;;;;8.47;88.92;98151.94;302519;32;3077;-84
2022/12/12 00:08:32;;;;;;;;;;;;;;;8.46;88.97;98152.88;301019;32;3740;-83
2022/12/12 00:08:42;;;;;;;;;;;;;;;8.46;89.10;98155.47;304091;32;1027;-83
2022/12/12 00:08:53;;;;;;;;;;;;;;;8.45;89.13;98154.63;302317;32;2523;-84
2022/12/12 00:09:03;;;;;;;;;;;;;;;8.47;89.35;98157.16;299631;32;2168;-84
2022/12/12 00:09:14;;;;;;;;;;;;;;;8.46;89.17;98156.31;301628;32;884;-84
2022/12/12 00:09:25;;;;;;;;;;;;;;;8.46;89.38;98163.28;303460;32;1890;-83
2022/12/12 00:09:35;;;;;;;;;;;;;;;8.46;89.29;98153.72;300213;32;2894;-84
2022/12/12 00:09:46;;;;;;;;;;;;;;;8.43;88.94;98145.22;298894;33;1299;-84
2022/12/12 00:09:56;;;;;;;;;;;;;;;8.45;89.41;98153.78;295510;33;1384;-84
2022/12/12 00:10:07;;;;;;;;;;;;;;;8.45;89.37;98151.19;294359;33;3976;-83
2022/12/12 00:10:17;;;;;;;;;;;;;;;8.43;89.06;98161.69;291225;33;4149;-84
2022/12/12 00:10:27;;;;;;;;;;;;;;;8.44;89.39;98155.56;288819;34;1279;-82
2022/12/12 00:10:37;;;;;;;;;;;;;;;8.45;89.13;98159.84;287350;34;4603;-84
2022/12/12 00:10:48;;;;;;;;;;;;;;;8.44;89.36;98157.31;287042;34;3782;-84
2022/12/12 00:10:58;;;;;;;;;;;;;;;8.44;89.09;98158.16;285962;34;872;-84
2022/12/12 00:11:08;;;;;;;;;;;;;;;8.45;89.11;98156.41;283343;34;3258;-83
2022/12/12 00:11:18;;;;;;;;;;;;;;;8.46;89.11;98150.25;282013;34;4004;-83
2022/12/12 00:11:29;;;;;;;;;;;;;;;8.47;88.88;98155.38;281720;35;1292;-84
2022/12/12 00:11:39;;;;;;;;;;;;;;;8.47;89.03;98154.56;280064;34;3913;-84
2022/12/12 00:11:49;;;;;;;;;;;;;;;8.46;88.72;98155.47;279339;34;4023;-84
2022/12/12 00:12:00;;;;;;;;;;;;;;;8.45;88.55;98153.78;280438;35;1469;-83
2022/12/12 00:12:10;;;;;;;;;;;;;;;8.45;88.47;98159.00;276962;35;5612;-84
2022/12/12 00:12:20;;;;;;;;;;;;;;;8.44;88.30;98157.31;275976;35;6256;-84
2022/12/12 00:12:30;;;;;;;;;;;;;;;8.45;88.26;98153.78;277449;35;1676;-84
2022/12/12 00:12:41;;;;;;;;;;;;;;;8.45;88.01;98159.84;275225;35;6128;-84
2022/12/12 00:12:51;;;;;;;;;;;;;;;8.45;88.11;98164.22;273743;35;5962;-84
2022/12/12 00:15:20;;;;;;;;;;;;;;;8.45;87.92;98156.41;2504490;27;19944;-84
2022/12/12 00:15:30;;;;;;;;;;;;;;;8.45;88.00;98159.00;355052;27;1257;-84
2022/12/12 00:15:40;;;;;;;;;;;;;;;8.46;87.66;98160.69;352762;28;1443;-84
2022/12/12 00:15:50;;;;;;;;;;;;;;;8.44;87.84;98158.16;349521;28;1473;-84
2022/12/12 00:16:02;;;;;;;;;;;;;;;8.42;87.55;98159.19;351060;28;1179;-84
2022/12/12 00:16:12;;;;;;;;;;;;;;;8.42;87.42;98159.19;351049;28;1308;-84
2022/12/12 00:16:22;;;;;;;;;;;;;;;8.42;87.41;98159.19;352394;28;1211;-84
2022/12/12 00:16:33;;;;;;;;;;;;;;;8.42;87.42;98164.38;354042;28;1313;-84
2022/12/12 00:16:43;;;;;;;;;;;;;;;8.43;87.53;98166.06;351156;28;1221;-84
2022/12/12 00:16:54;;;;;;;;;;;;;;;8.43;87.74;98160.84;349341;28;1230;-84
2022/12/12 00:17:04;;;;;;;;;;;;;;;8.42;87.35;98159.19;349483;28;1681;-84
2022/12/12 00:17:14;;;;;;;;;;;;;;;8.42;87.99;98162.63;351572;28;1355;-84
2022/12/12 00:17:24;;;;;;;;;;;;;;;8.42;87.60;98159.19;355012;27;1336;-84
2022/12/12 00:17:35;;;;;;;;;;;;;;;8.42;87.82;98164.38;355163;27;1301;-84
2022/12/12 00:17:45;;;;;;;;;;;;;;;8.41;87.49;98162.72;353905;28;939;-84
2022/12/12 00:17:55;;;;;;;;;;;;;;;8.39;87.51;98160.19;353009;28;1046;-83
2022/12/12 00:18:05;;;;;;;;;;;;;;;8.39;87.75;98160.19;353938;28;1380;-83
2022/12/12 00:18:16;;;;;;;;;;;;;;;8.39;87.65;98159.34;352911;28;1217;-83
2022/12/12 00:18:26;;;;;;;;;;;;;;;8.37;87.79;98158.59;352425;28;1197;-83
2022/12/12 00:18:36;;;;;;;;;;;;;;;8.38;88.22;98160.28;349670;28;1323;-83
2022/12/12 00:18:46;;;;;;;;;;;;;;;8.38;88.23;98163.72;351189;28;1331;-83
2022/12/12 00:18:57;;;;;;;;;;;;;;;8.39;88.18;98164.56;350808;28;1210;-83
2022/12/12 00:19:07;;;;;;;;;;;;;;;8.37;88.06;98169.84;350536;28;1247;-83
2022/12/12 00:19:17;;;;;;;;;;;;;;;8.37;87.74;98158.59;346950;28;1288;-83
2022/12/12 00:19:27;;;;;;;;;;;;;;;8.39;88.04;98164.56;347973;28;1206;-83
2022/12/12 00:19:38;;;;;;;;;;;;;;;8.39;87.88;98154.13;346710;28;1216;-84
2022/12/12 00:19:48;;;;;;;;;;;;;;;8.38;88.32;98157.66;349386;28;932;-84
2022/12/12 00:19:58;;;;;;;;;;;;;;;8.38;88.15;98157.66;349500;28;893;-84
2022/12/12 00:20:08;;;;;;;;;;;;;;;8.37;87.83;98161.19;348217;28;1321;-84
2022/12/12 00:20:19;;;;;;;;;;;;;;;8.37;87.93;98158.59;345470;28;1295;-84
2022/12/12 00:20:29;;;;;;;;;;;;;;;8.38;88.11;98158.50;344520;28;864;-84
2022/12/12 00:20:39;;;;;;;;;;;;;;;8.37;88.22;98161.19;344826;28;1102;-84
2022/12/12 00:20:52;;;;;;;;;;;;;;;8.36;88.32;98149.09;346827;28;1296;-84
2022/12/12 00:21:03;;;;;;;;;;;;;;;8.34;88.42;98152.63;348533;28;1338;-84
2022/12/12 00:21:23;;;;;;;;;;;;;;;8.33;88.07;98156.16;349486;28;1354;-84
2022/12/12 00:21:33;;;;;;;;;;;;;;;8.31;87.82;98152.75;345459;28;1254;-84
2022/12/12 00:21:43;;;;;;;;;;;;;;;8.33;88.20;98155.31;347415;28;1111;-84
2022/12/12 00:21:54;;;;;;;;;;;;;;;8.36;87.81;98159.50;345302;28;1321;-84
2022/12/12 00:22:04;;;;;;;;;;;;;;;8.36;88.32;98151.69;342556;28;1182;-84
2022/12/12 00:22:14;;;;;;;;;;;;;;;8.37;88.20;98158.59;342570;28;1362;-84
2022/12/12 00:22:24;;;;;;;;;;;;;;;8.38;88.27;98157.66;341353;29;1426;-84
2022/12/12 00:22:35;;;;;;;;;;;;;;;8.38;87.96;98155.06;338651;29;1291;-84
2022/12/12 00:22:45;;;;;;;;;;;;;;;8.36;87.74;98154.31;342163;28;1157;-84
2022/12/12 00:22:55;;;;;;;;;;;;;;;8.33;87.60;98156.16;342969;28;884;-84
2022/12/12 00:23:05;;;;;;;;;;;;;;;8.31;87.80;98157.97;345595;28;1184;-84
2022/12/12 00:23:15;;;;;;;;;;;;;;;8.31;88.00;98163.19;344590;28;4069;-84
2022/12/12 00:23:26;;;;;;;;;;;;;;;8.31;88.03;98163.19;345885;28;1644;-84
2022/12/12 00:23:36;;;;;;;;;;;;;;;8.30;87.83;98168.47;348158;28;1390;-85
2022/12/12 00:23:46;;;;;;;;;;;;;;;8.31;88.14;98163.19;346466;28;1412;-84
2022/12/12 00:23:57;;;;;;;;;;;;;;;8.30;88.16;98164.09;342464;28;1399;-84
2022/12/12 00:24:07;;;;;;;;;;;;;;;8.29;88.31;98165.03;341457;29;1177;-84
2022/12/12 00:24:17;;;;;;;;;;;;;;;8.29;87.72;98169.41;342792;28;1199;-84
2022/12/12 00:24:27;;;;;;;;;;;;;;;8.30;88.16;98165.88;343329;28;1224;-84
2022/12/12 00:24:37;;;;;;;;;;;;;;;8.29;88.01;98167.63;343854;28;1344;-84
2022/12/12 00:24:48;;;;;;;;;;;;;;;8.28;87.84;98173.78;339869;29;1220;-84
2022/12/12 00:24:58;;;;;;;;;;;;;;;8.27;87.57;98166.03;342940;28;1194;-85
2022/12/12 00:25:08;;;;;;;;;;;;;;;8.27;87.82;98172.09;340049;29;1213;-85
2022/12/12 00:25:19;;;;;;;;;;;;;;;8.27;87.88;98172.09;337354;29;1263;-84
2022/12/12 00:25:29;;;;;;;;;;;;;;;8.28;87.59;98178.97;335730;29;1981;-85
2022/12/12 00:25:39;;;;;;;;;;;;;;;8.30;87.55;98176.28;334668;29;1668;-84
2022/12/12 00:25:56;;;;;;;;;;;;;;;8.30;87.91;98171.91;332604;29;1208;-84
2022/12/12 00:26:07;;;;;;;;;;;;;;;8.31;87.50;98178.81;331296;29;1327;-84
2022/12/12 00:26:24;;;;;;;;;;;;;;;8.31;87.50;98175.38;332175;29;1800;-84
2022/12/12 00:26:35;;;;;;;;;;;;;;;8.29;87.29;98178.06;331215;29;1397;-84
2022/12/12 00:26:45;;;;;;;;;;;;;;;8.30;87.34;98171.09;329035;30;1222;-85
2022/12/12 00:26:55;;;;;;;;;;;;;;;8.29;87.51;98175.44;329052;30;1276;-84
2022/12/12 00:27:06;;;;;;;;;;;;;;;8.28;87.70;98178.97;328964;30;1318;-84
2022/12/12 00:27:16;;;;;;;;;;;;;;;8.27;87.59;98177.31;329359;29;1952;-84
2022/12/12 00:27:26;;;;;;;;;;;;;;;8.27;87.36;98177.31;325822;30;2171;-84
2022/12/12 00:27:36;;;;;;;;;;;;;;;8.27;88.14;98176.47;324798;30;1675;-84
2022/12/12 00:27:46;;;;;;;;;;;;;;;8.27;87.83;98176.47;322925;30;2435;-84
2022/12/12 00:27:58;;;;;;;;;;;;;;;8.28;87.98;98170.31;322883;30;2729;-84
2022/12/12 00:28:09;;;;;;;;;;;;;;;8.26;87.94;98178.22;320330;30;2467;-84
2022/12/12 00:28:19;;;;;;;;;;;;;;;8.28;87.57;98178.16;319191;30;1242;-84
2022/12/12 00:28:29;;;;;;;;;;;;;;;8.28;87.61;98178.97;321397;30;2605;-84
2022/12/12 00:28:39;;;;;;;;;;;;;;;8.29;87.80;98172.84;319804;30;1442;-84
2022/12/12 00:28:50;;;;;;;;;;;;;;;8.32;87.96;98175.31;321552;30;1335;-84
2022/12/12 00:29:00;;;;;;;;;;;;;;;8.33;87.91;98177.00;320683;30;1230;-84
2022/12/12 00:29:10;;;;;;;;;;;;;;;8.35;87.87;98184.75;320984;30;1762;-84
2022/12/12 00:29:20;;;;;;;;;;;;;;;8.34;87.69;98181.28;321711;30;1337;-84
2022/12/12 00:29:31;;;;;;;;;;;;;;;8.33;87.51;98177.00;317470;30;2278;-85
2022/12/12 00:29:41;;;;;;;;;;;;;;;8.35;87.63;98179.53;314698;31;2709;-84
2022/12/12 00:29:52;;;;;;;;;;;;;;;8.34;87.87;98178.69;319051;31;1324;-84
2022/12/12 00:30:02;;;;;;;;;;;;;;;8.33;87.71;98177.00;318202;30;3442;-84
2022/12/12 00:30:12;;;;;;;;;;;;;;;8.33;87.52;98177.00;318622;30;3717;-84
2022/12/12 00:30:23;;;;;;;;;;;;;;;8.33;87.30;98171.78;319112;31;1342;-85
2022/12/12 00:30:33;;;;;;;;;;;;;;;8.32;87.70;98170.09;313007;31;3709;-85
2022/12/12 00:30:43;;;;;;;;;;;;;;;8.33;87.55;98174.41;312361;31;2837;-85
2022/12/12 00:30:54;;;;;;;;;;;;;;;8.33;87.38;98171.78;312313;31;1237;-84
2022/12/12 00:31:04;;;;;;;;;;;;;;;8.33;87.12;98174.41;304802;32;1348;-85
2022/12/12 00:31:14;;;;;;;;;;;;;;;8.34;87.28;98172.63;306451;32;1844;-84
2022/12/12 00:31:25;;;;;;;;;;;;;;;8.34;87.57;98170.88;305869;32;2534;-84
2022/12/12 00:31:35;;;;;;;;;;;;;;;8.38;87.49;98178.50;306924;32;898;-84
2022/12/12 00:31:45;;;;;;;;;;;;;;;8.36;87.39;98162.97;305410;32;3044;-84
2022/12/12 00:31:55;;;;;;;;;;;;;;;8.37;86.96;98171.63;304924;32;4332;-84
2022/12/12 00:32:06;;;;;;;;;;;;;;;8.37;87.34;98177.69;308574;32;836;-84
2022/12/12 00:32:16;;;;;;;;;;;;;;;8.37;87.25;98177.69;305419;32;4528;-84
2022/12/12 00:32:26;;;;;;;;;;;;;;;8.36;87.02;98175.16;300544;32;5171;-84
2022/12/12 00:32:36;;;;;;;;;;;;;;;8.36;87.30;98175.16;297854;33;3385;-84
2022/12/12 00:32:47;;;;;;;;;;;;;;;8.37;87.12;98176.84;301082;32;5285;-84
2022/12/12 00:32:57;;;;;;;;;;;;;;;8.37;87.45;98177.69;298478;32;4358;-84
2022/12/12 00:33:07;;;;;;;;;;;;;;;8.39;87.21;98177.59;295507;33;1281;-84
2022/12/12 00:33:17;;;;;;;;;;;;;;;8.37;87.18;98172.47;296943;33;2734;-84
2022/12/12 00:33:27;;;;;;;;;;;;;;;8.37;86.77;98169.84;296095;33;2946;-84
2022/12/12 00:33:38;;;;;;;;;;;;;;;8.38;86.89;98178.50;295652;33;1344;-84
2022/12/12 00:33:49;;;;;;;;;;;;;;;8.37;86.83;98176.84;293598;33;4072;-84
2022/12/12 00:33:59;;;;;;;;;;;;;;;8.38;87.19;98175.91;292971;33;4533;-84
2022/12/12 00:34:09;;;;;;;;;;;;;;;8.39;87.04;98172.38;291653;33;6973;-84
2022/12/12 00:34:19;;;;;;;;;;;;;;;8.39;87.37;98175.81;289021;34;1347;-84
2022/12/12 00:34:29;;;;;;;;;;;;;;;8.39;86.97;98177.59;286547;34;6938;-84
2022/12/12 00:34:40;;;;;;;;;;;;;;;8.39;87.38;98178.44;285354;34;7687;-85
2022/12/12 00:34:50;;;;;;;;;;;;;;;8.40;86.92;98174.06;286027;34;1287;-84
2022/12/12 00:35:00;;;;;;;;;;;;;;;8.39;86.83;98178.44;285268;34;7760;-84
2022/12/12 00:35:10;;;;;;;;;;;;;;;8.40;86.90;98168.84;285354;34;6513;-84
2022/12/12 00:35:21;;;;;;;;;;;;;;;8.40;87.23;98176.66;284120;34;1238;-84
2022/12/12 00:35:31;;;;;;;;;;;;;;;8.39;87.15;98175.81;281164;34;3876;-84
2022/12/12 00:35:41;;;;;;;;;;;;;;;8.40;87.07;98169.69;277767;35;5186;-84
2022/12/12 00:35:52;;;;;;;;;;;;;;;8.40;86.92;98177.50;275202;36;1370;-84
2022/12/12 00:36:02;;;;;;;;;;;;;;;8.39;87.19;98175.81;274297;35;5793;-84
2022/12/12 00:36:13;;;;;;;;;;;;;;;8.39;87.18;98180.19;275788;35;7851;-84
2022/12/12 00:38:07;;;;;;;;;;;;;;;8.38;87.08;98183.72;2508359;27;19929;-83
2022/12/12 00:38:18;;;;;;;;;;;;;;;8.38;87.46;98188.94;355092;27;1350;-83
2022/12/12 00:38:28;;;;;;;;;;;;;;;8.38;87.22;98187.19;352366;28;1200;-83
2022/12/12 00:38:40;;;;;;;;;;;;;;;8.39;87.16;98185.41;349501;28;1346;-84
2022/12/12 00:38:51;;;;;;;;;;;;;;;8.38;87.15;98184.56;350942;28;1251;-83
2022/12/12 00:39:02;;;;;;;;;;;;;;;8.38;86.96;98183.72;351132;28;1217;-84
2022/12/12 00:39:12;;;;;;;;;;;;;;;8.38;87.34;98184.56;349640;28;1251;-84
2022/12/12 00:39:22;;;;;;;;;;;;;;;8.38;86.97;98183.72;352507;28;1281;-83
2022/12/12 00:39:33;;;;;;;;;;;;;;;8.39;86.98;98185.41;352667;28;1333;-83
2022/12/12 00:39:43;;;;;;;;;;;;;;;8.37;86.99;98184.66;350634;28;1313;-82
2022/12/12 00:39:53;;;;;;;;;;;;;;;8.38;87.19;98183.72;351546;28;1318;-84
2022/12/12 00:40:04;;;;;;;;;;;;;;;8.40;86.92;98184.47;352106;28;1192;-84
2022/12/12 00:40:14;;;;;;;;;;;;;;;8.39;86.81;98190.63;352104;28;1280;-83
2022/12/12 00:40:25;;;;;;;;;;;;;;;8.38;87.17;98181.13;352368;28;1436;-84
2022/12/12 00:40:35;;;;;;;;;;;;;;;8.37;86.89;98187.25;352185;28;1294;-84
2022/12/12 00:40:45;;;;;;;;;;;;;;;8.37;87.03;98187.25;352303;28;1227;-84
2022/12/12 00:40:57;;;;;;;;;;;;;;;8.37;87.07;98184.66;350936;28;1351;-82
2022/12/12 00:41:07;;;;;;;;;;;;;;;8.38;86.76;98181.13;349568;28;1246;-84
2022/12/12 00:41:17;;;;;;;;;;;;;;;8.36;87.11;98180.38;352508;28;1202;-82
2022/12/12 00:41:28;;;;;;;;;;;;;;;8.37;86.78;98182.03;352438;28;1439;-82
2022/12/12 00:41:38;;;;;;;;;;;;;;;8.37;87.11;98176.84;347825;28;2011;-84
2022/12/12 00:41:48;;;;;;;;;;;;;;;8.36;87.02;98181.22;348184;28;2980;-83
2022/12/12 00:41:58;;;;;;;;;;;;;;;8.36;86.82;98176.00;348111;28;1240;-81
2022/12/12 00:42:09;;;;;;;;;;;;;;;8.37;86.68;98182.03;348853;28;1813;-82
2022/12/12 00:42:19;;;;;;;;;;;;;;;8.36;86.91;98180.38;348313;28;3311;-82
2022/12/12 00:42:29;;;;;;;;;;;;;;;8.36;86.63;98181.22;350463;28;1187;-84
2022/12/12 00:42:39;;;;;;;;;;;;;;;8.34;86.76;98173.47;348654;28;1454;-84
2022/12/12 00:42:50;;;;;;;;;;;;;;;8.35;86.81;98174.31;346654;28;1278;-84
2022/12/12 00:43:00;;;;;;;;;;;;;;;8.33;86.73;98182.22;349546;28;1062;-85
2022/12/12 00:43:10;;;;;;;;;;;;;;;8.32;86.91;98180.53;346697;28;1215;-83
2022/12/12 00:43:20;;;;;;;;;;;;;;;8.32;86.70;98180.53;349334;28;1213;-85
2022/12/12 00:43:30;;;;;;;;;;;;;;;8.33;86.78;98176.16;348995;28;998;-82
2022/12/12 00:43:41;;;;;;;;;;;;;;;8.33;86.63;98177.00;346942;28;1200;-82
2022/12/12 00:43:51;;;;;;;;;;;;;;;8.33;86.90;98177.00;346865;28;1275;-84
2022/12/12 00:44:01;;;;;;;;;;;;;;;8.31;86.69;98183.19;343869;28;1203;-85
2022/12/12 00:44:11;;;;;;;;;;;;;;;8.30;87.06;98177.13;346886;28;1443;-82
2022/12/12 00:44:22;;;;;;;;;;;;;;;8.29;86.69;98175.44;345468;28;1323;-83
2022/12/12 00:44:32;;;;;;;;;;;;;;;8.30;86.61;98189.31;345247;28;1066;-84
2022/12/12 00:44:42;;;;;;;;;;;;;;;8.31;86.99;98183.19;345038;28;1281;-84
2022/12/12 00:44:52;;;;;;;;;;;;;;;8.31;86.98;98178.81;344802;28;1308;-84
2022/12/12 00:45:03;;;;;;;;;;;;;;;8.30;86.87;98181.50;345538;28;944;-83
2022/12/12 00:45:13;;;;;;;;;;;;;;;8.32;86.71;98174.44;343055;28;1221;-83
2022/12/12 00:45:24;;;;;;;;;;;;;;;8.31;86.63;98184.03;346046;28;1433;-83
2022/12/12 00:45:35;;;;;;;;;;;;;;;8.31;86.94;98177.97;346437;28;1288;-83
2022/12/12 00:45:45;;;;;;;;;;;;;;;8.30;86.70;98179.75;344551;28;1349;-83
2022/12/12 00:45:57;;;;;;;;;;;;;;;8.31;87.00;98183.19;341179;28;1310;-83
2022/12/12 00:46:07;;;;;;;;;;;;;;;8.32;86.84;98177.94;342666;28;1260;-83
2022/12/12 00:46:18;;;;;;;;;;;;;;;8.32;86.44;98185.75;342582;28;1505;-83
2022/12/12 00:46:28;;;;;;;;;;;;;;;8.32;86.77;98180.53;342419;28;1322;-84
2022/12/12 00:46:39;;;;;;;;;;;;;;;8.32;86.56;98183.13;340183;29;1289;-84
2022/12/12 00:46:49;;;;;;;;;;;;;;;8.33;86.68;98177.00;340962;28;1910;-84
2022/12/12 00:46:59;;;;;;;;;;;;;;;8.33;86.83;98182.22;340731;28;1446;-83
2022/12/12 00:47:09;;;;;;;;;;;;;;;8.32;86.57;98175.31;338765;29;1251;-83
2022/12/12 00:47:20;;;;;;;;;;;;;;;8.34;86.85;98185.66;341390;29;991;-83
2022/12/12 00:47:30;;;;;;;;;;;;;;;8.34;86.89;98183.06;338944;29;1503;-83
2022/12/12 00:47:40;;;;;;;;;;;;;;;8.36;86.64;98177.75;339761;29;1649;-83
2022/12/12 00:47:50;;;;;;;;;;;;;;;8.36;86.96;98176.00;340370;29;1178;-83
2022/12/12 00:48:00;;;;;;;;;;;;;;;8.36;86.92;98180.38;344868;28;1510;-83
2022/12/12 00:48:11;;;;;;;;;;;;;;;8.36;86.72;98181.22;341231;28;1969;-83
2022/12/12 00:48:21;;;;;;;;;;;;;;;8.34;86.50;98173.47;340077;29;1207;-83
2022/12/12 00:48:31;;;;;;;;;;;;;;;8.32;86.50;98175.31;337744;29;1828;-83
2022/12/12 00:48:41;;;;;;;;;;;;;;;8.30;86.75;98179.75;336388;29;2965;-83
2022/12/12 00:48:56;;;;;;;;;;;;;;;8.30;87.10;98176.28;336332;29;1754;-83
2022/12/12 00:49:06;;;;;;;;;;;;;;;8.28;87.17;98172.94;338707;29;1252;-83
2022/12/12 00:49:16;;;;;;;;;;;;;;;8.28;86.71;98173.78;338271;29;1531;-83
2022/12/12 00:49:27;;;;;;;;;;;;;;;8.27;86.68;98177.31;339965;29;1338;-83
2022/12/12 00:49:37;;;;;;;;;;;;;;;8.26;87.10;98180.00;337395;29;1287;-83
2022/12/12 00:49:47;;;;;;;;;;;;;;;8.26;86.70;98177.38;337684;29;1360;-83
2022/12/12 00:49:57;;;;;;;;;;;;;;;8.24;87.01;98177.47;336033;29;1847;-83
2022/12/12 00:50:08;;;;;;;;;;;;;;;8.22;86.71;98184.56;333847;29;1236;-83
2022/12/12 00:50:18;;;;;;;;;;;;;;;8.24;86.81;98182.69;334991;29;2479;-83
2022/12/12 00:50:29;;;;;;;;;;;;;;;8.23;87.17;98183.59;332548;29;2113;-83
2022/12/12 00:50:39;;;;;;;;;;;;;;;8.23;87.12;98186.22;331555;29;1239;-83
2022/12/12 00:50:49;;;;;;;;;;;;;;;8.24;87.02;98187.06;330858;29;2365;-83
2022/12/12 00:51:04;;;;;;;;;;;;;;;8.25;87.33;98188.72;330459;29;2445;-83
2022/12/12 00:51:18;;;;;;;;;;;;;;;8.23;86.89;98185.41;330048;29;2603;-83
2022/12/12 00:51:28;;;;;;;;;;;;;;;8.22;87.01;98189.78;329280;29;1871;-83
2022/12/12 00:51:39;;;;;;;;;;;;;;;8.23;86.77;98186.22;329986;30;895;-83
2022/12/12 00:51:49;;;;;;;;;;;;;;;8.22;87.03;98184.56;328065;30;1307;-83
2022/12/12 00:51:59;;;;;;;;;;;;;;;8.22;87.32;98188.94;328600;29;1920;-84
2022/12/12 00:52:09;;;;;;;;;;;;;;;8.22;86.92;98191.53;327337;30;1215;-83
2022/12/12 00:52:19;;;;;;;;;;;;;;;8.21;87.09;98188.09;328046;30;3329;-83
2022/12/12 00:52:30;;;;;;;;;;;;;;;8.21;86.97;98193.31;325588;30;2976;-83
2022/12/12 00:52:40;;;;;;;;;;;;;;;8.18;87.41;98188.25;320816;30;1212;-83
2022/12/12 00:52:50;;;;;;;;;;;;;;;8.18;87.11;98188.25;324575;30;2850;-83
2022/12/12 00:53:00;;;;;;;;;;;;;;;8.17;87.22;98194.38;325130;30;3089;-83
2022/12/12 00:53:12;;;;;;;;;;;;;;;8.18;87.51;98188.25;324613;30;3453;-84
2022/12/12 00:53:22;;;;;;;;;;;;;;;8.19;87.37;98189.09;321736;30;1458;-83
2022/12/12 00:53:32;;;;;;;;;;;;;;;8.20;87.01;98193.38;318599;30;3262;-83
2022/12/12 00:53:42;;;;;;;;;;;;;;;8.19;87.32;98184.72;317054;30;2422;-83
2022/12/12 00:53:53;;;;;;;;;;;;;;;8.19;86.87;98192.53;318044;31;1250;-83
2022/12/12 00:54:03;;;;;;;;;;;;;;;8.21;87.21;98190.69;317773;31;1779;-83
2022/12/12 00:54:13;;;;;;;;;;;;;;;8.21;86.88;98189.84;316922;30;2381;-83
2022/12/12 00:54:23;;;;;;;;;;;;;;;8.21;87.20;98182.03;316958;31;1195;-83
2022/12/12 00:54:34;;;;;;;;;;;;;;;8.19;86.87;98189.94;317933;30;3408;-83
2022/12/12 00:54:44;;;;;;;;;;;;;;;8.20;87.22;98191.63;316822;31;4140;-83
2022/12/12 00:54:54;;;;;;;;;;;;;;;8.20;86.94;98186.41;313516;31;1365;-83
2022/12/12 00:55:05;;;;;;;;;;;;;;;8.20;87.38;98190.78;314290;31;4400;-83
2022/12/12 00:55:15;;;;;;;;;;;;;;;8.20;86.66;98196.84;316256;30;4160;-83
2022/12/12 00:55:25;;;;;;;;;;;;;;;8.18;86.96;98196.06;316069;31;1216;-83
2022/12/12 00:55:35;;;;;;;;;;;;;;;8.18;86.78;98195.22;318820;31;4256;-83
2022/12/12 00:55:53;;;;;;;;;;;;;;;8.18;86.76;98187.41;315981;31;4385;-83
2022/12/12 00:56:03;;;;;;;;;;;;;;;8.18;86.79;98188.25;312363;31;3166;-83
2022/12/12 00:56:17;;;;;;;;;;;;;;;8.19;86.59;98195.16;309054;31;3131;-83
2022/12/12 00:56:27;;;;;;;;;;;;;;;8.19;86.88;98197.75;306813;31;3562;-83
2022/12/12 00:56:38;;;;;;;;;;;;;;;8.19;86.56;98192.53;310064;31;1298;-83
2022/12/12 00:56:48;;;;;;;;;;;;;;;8.20;86.37;98196.84;310519;31;5237;-83
2022/12/12 00:56:58;;;;;;;;;;;;;;;8.21;86.76;98201.13;307739;31;6836;-83
2022/12/12 00:57:08;;;;;;;;;;;;;;;8.19;86.16;98197.75;305851;32;1220;-83
2022/12/12 00:57:18;;;;;;;;;;;;;;;8.19;86.19;98204.72;302493;32;7012;-83
2022/12/12 00:57:29;;;;;;;;;;;;;;;8.17;86.33;98207.41;301838;32;6421;-83
2022/12/12 00:57:39;;;;;;;;;;;;;;;8.17;86.64;98206.56;300587;32;1700;-83
2022/12/12 00:57:49;;;;;;;;;;;;;;;8.18;86.37;98209.09;299936;32;5471;-83
2022/12/12 00:57:59;;;;;;;;;;;;;;;8.17;86.70;98212.63;299627;32;6509;-83
2022/12/12 00:58:10;;;;;;;;;;;;;;;8.18;86.74;98214.31;300116;33;1127;-83
2022/12/12 00:58:20;;;;;;;;;;;;;;;8.18;86.30;98213.47;297412;33;4715;-83
2022/12/12 00:58:30;;;;;;;;;;;;;;;8.17;86.39;98214.38;294756;33;5053;-83
2022/12/12 00:58:41;;;;;;;;;;;;;;;8.18;86.52;98218.69;291126;33;6647;-83
2022/12/12 00:58:51;;;;;;;;;;;;;;;8.16;86.79;98212.72;293240;33;1314;-84
2022/12/12 00:59:02;;;;;;;;;;;;;;;8.15;86.60;98218.84;285869;34;7812;-84
2022/12/12 00:59:13;;;;;;;;;;;;;;;8.13;86.61;98218.91;282480;34;10607;-84
2022/12/12 00:59:24;;;;;;;;;;;;;;;8.14;86.53;98218.00;287918;34;892;-84
2022/12/12 01:01:39;;;;;;;;;;;;;;;8.13;85.90;98215.47;2509281;27;19923;-84
2022/12/12 01:01:49;;;;;;;;;;;;;;;8.12;85.78;98214.63;356658;27;1419;-84
2022/12/12 01:01:59;;;;;;;;;;;;;;;8.13;86.19;98218.09;353684;28;1177;-84
2022/12/12 01:02:09;;;;;;;;;;;;;;;8.12;86.00;98213.78;350929;28;1194;-84
2022/12/12 01:02:19;;;;;;;;;;;;;;;8.12;85.77;98213.78;349653;28;1193;-84
2022/12/12 01:02:30;;;;;;;;;;;;;;;8.11;85.95;98214.72;352260;28;1218;-84
2022/12/12 01:02:40;;;;;;;;;;;;;;;8.10;85.89;98215.63;352265;28;1231;-84
2022/12/12 01:02:50;;;;;;;;;;;;;;;8.10;86.19;98221.69;350884;28;1230;-84
2022/12/12 01:03:00;;;;;;;;;;;;;;;8.10;86.23;98208.66;349731;28;739;-83
2022/12/12 01:03:11;;;;;;;;;;;;;;;8.12;86.18;98206.81;349858;28;1180;-84
2022/12/12 01:03:21;;;;;;;;;;;;;;;8.13;86.20;98213.72;351472;28;1198;-84